Tucson, AZ

9:30 PM MST on August 20, 2014 (GMT -0700)
UA WRRC WEATHER | Change Station
CLOSE
Current Station
Personal Weather Station
Location: Tucson, AZ
Elevation: 2431 ft
Nearby Weather Stations
Active Advisory: Flash Flood Warning

Elev 2431 ft 32.23 °N, 110.94 °W | Updated 10 minutes ago

Mostly Cloudy
Mostly Cloudy
83.1 °F
Feels Like 83 °F
N
3.0
Wind Variable Wind from West
Gusts 7.0 mph

Today
High -- | Low -- °F
--% Chance of Precip.
Yesterday
High -- | Low -- °F
Precip. -- in
5:51 AM 7:02 PM
Waning Crescent, 17% visible
Pressure 29.86 in
Visibility 10.0 miles
Clouds Scattered Clouds 8500 ft
Mostly Cloudy 10000 ft
Heat Index 83 °F
Dew Point 58 °F
Humidity 43%
Rainfall 0.00 in
Snow Depth Not available.
UV 0 out of 12
Pollen 5.20 out of 12
Air Quality Not available.
Flu Activity Not available.
METAR KDMA 210358Z AUTO 24008KT 10SM SCT085 BKN100 27/16 A2998 RMK AO2 SLP109 T02730156 $

More Conditions Fewer Conditions

Pressure 29.86 in
Visibility 10.0 miles
Clouds Scattered Clouds 8500 ft
Mostly Cloudy 10000 ft
Heat Index 83 °F
Dew Point 58 °F
Humidity 43%
Rainfall 0.00 in
Snow Depth Not available.
UV 0 out of 12
Pollen 5.20 out of 12
Air Quality Not available.
Flu Activity Not available.
METAR KDMA 210358Z AUTO 24008KT 10SM SCT085 BKN100 27/16 A2998 RMK AO2 SLP109 T02730156 $

More Conditions Fewer Conditions

10-Day Weather Forecast

Almanac

Astronomy

Aug. 20, 2014 Rise Set
Actual Time 5:51 AM MST 7:02 PM MST
Civil Twilight 5:25 AM MST 7:27 PM MST
Nautical Twilight 4:55 AM MST 7:58 PM MST
Astronomical Twilight 4:24 AM MST 8:29 PM MST
Moon 1:40 AM MST (8/20) 3:44 PM MST (8/20)
Length of Visible Light 14h 02m
Length of Day
13h 11m
Tomorrow will be 1m 46s shorter.
Waning Crescent, 17% of the Moon is Illuminated
Aug 21
Waning Crescent
Aug 25
New
Sep 2
First Quarter
Sep 8
Full
Sep 15
Last Quarter

Today's Extremes

State Highs State Lows

Community

WunderPhotos

Upload Photos

1,745,854 photos uploaded!

Nearby

Snow Depth

Station Depth Elevation
Workman Creek 2 in 6900 ft
Beaver Head 14 in 7990 ft
Heber 0 in 7640 ft
Maverick Fork 0 in 9200 ft
Promontory 0 in 7930 ft

Earthquake Activity

City Distance Mag. Time & Date
Lordsburg, New Mexico 111 miles 3.1 9:13 PM MST
2014-08-15
Minimum magnitude displayed is 2.5.

Coastal Water Temperatures

Place Temperature
No Stations Reporting

Nearby Weather Stations